Time;durP1;ratioP1;P1;durP2;ratioP2;P2;SDS_P1;SDS_P2;PMS_P1;PMS_P2;Temp;Humidity;BMP_temperature;BMP_pressure;BME280_temperature;BME280_humidity;BME280_pressure;Samples;Min_cycle;Max_cycle;Signal;HPM_P1;HPM_P2
2021/03/31 00:02:57;;;;;;;4.03;1.42;;;;;;;7.11;64.43;100259.69;2010557;77;20777;-73
2021/03/31 00:05:59;;;;;;;3.20;1.70;;;;;;;7.07;64.20;100265.63;2011727;80;20557;-73
2021/03/31 00:09:01;;;;;;;2.47;1.70;;;;;;;7.04;64.47;100262.13;2011442;80;20208;-73
2021/03/31 00:12:05;;;;;;;3.80;1.89;;;;;;;6.97;64.65;100255.91;2011006;80;20210;-74
2021/03/31 00:15:07;;;;;;;6.03;2.30;;;;;;;6.91;65.19;100259.22;2010962;80;20202;-73
2021/03/31 00:18:10;;;;;;;7.51;2.85;;;;;;;6.85;65.36;100253.06;2016153;77;21388;-73
2021/03/31 00:21:12;;;;;;;6.30;2.66;;;;;;;6.81;65.53;100252.09;2019584;80;20370;-73
2021/03/31 00:24:14;;;;;;;4.88;2.25;;;;;;;6.78;65.52;100253.72;2016542;80;20257;-73
2021/03/31 00:27:15;;;;;;;9.39;2.44;;;;;;;6.75;65.71;100245.91;2016403;80;20390;-73
2021/03/31 00:30:18;;;;;;;5.19;1.99;;;;;;;6.72;65.94;100248.41;2016163;77;20615;-73
2021/03/31 00:33:20;;;;;;;3.49;1.80;;;;;;;6.67;66.56;100243.16;2015824;80;20332;-73
2021/03/31 00:36:22;;;;;;;3.08;1.52;;;;;;;6.60;66.86;100243.81;2016904;80;20209;-73
2021/03/31 00:39:23;;;;;;;3.61;2.15;;;;;;;6.53;67.04;100245.38;2016576;80;20310;-73
2021/03/31 00:42:25;;;;;;;3.01;1.49;;;;;;;6.47;66.99;100249.53;2016598;80;20602;-73
2021/03/31 00:45:27;;;;;;;4.50;2.38;;;;;;;6.44;67.05;100252.88;2014533;77;20580;-73
2021/03/31 00:48:29;;;;;;;4.29;1.95;;;;;;;6.39;67.13;100249.31;2011655;80;20318;-73
2021/03/31 00:51:30;;;;;;;6.16;1.81;;;;;;;6.36;66.90;100242.38;2011218;80;20883;-73
2021/03/31 00:54:32;;;;;;;6.22;2.00;;;;;;;6.33;66.65;100241.41;2010616;80;20950;-73
2021/03/31 00:57:35;;;;;;;4.49;1.63;;;;;;;6.29;66.68;100242.19;2011514;80;20328;-73
2021/03/31 01:00:37;;;;;;;2.56;1.45;;;;;;;6.24;66.84;100244.59;2011008;77;25199;-73
2021/03/31 01:03:39;;;;;;;3.40;1.49;;;;;;;6.21;67.03;100241.09;2016909;80;20305;-73
2021/03/31 01:06:40;;;;;;;8.77;1.91;;;;;;;6.19;67.16;100242.75;2016548;80;21053;-73
2021/03/31 01:09:42;;;;;;;2.79;2.01;;;;;;;6.15;67.20;100235.78;2016429;80;20441;-73
2021/03/31 01:12:59;;;;;;;6.34;2.85;;;;;;;6.08;67.99;100226.97;2016756;80;20351;-73
2021/03/31 01:16:38;;;;;;;6.80;2.56;;;;;;;6.04;68.31;100220.00;2013124;77;21962;-73
2021/03/31 01:19:51;;;;;;;4.46;2.69;;;;;;;5.95;68.41;100220.63;2011426;80;20334;-73
2021/03/31 01:23:23;;;;;;;6.71;2.80;;;;;;;5.91;68.41;100218.78;2010926;80;20633;-73
2021/03/31 01:26:31;;;;;;;2.79;1.76;;;;;;;5.88;68.50;100213.53;2011108;80;20664;-73
2021/03/31 01:30:10;;;;;;;10.46;3.29;;;;;;;5.85;68.42;100212.56;2011596;80;21507;-73
2021/03/31 01:33:49;;;;;;;8.36;3.40;;;;;;;5.81;68.89;100216.78;2005720;79;22271;-73
2021/03/31 01:36:54;;;;;;;11.61;3.00;;;;;;;5.74;69.32;100212.25;2005762;80;20853;-73
2021/03/31 01:39:57;;;;;;;7.66;3.45;;;;;;;5.65;69.27;100217.16;2006217;80;20214;-73
2021/03/31 01:43:05;;;;;;;3.92;2.54;;;;;;;5.57;69.15;100211.81;2006131;80;20329;-73
2021/03/31 01:46:08;;;;;;;5.88;2.76;;;;;;;5.51;68.89;100210.75;2008862;77;21895;-73
2021/03/31 01:49:09;;;;;;;3.09;2.30;;;;;;;5.49;68.37;100212.41;2016854;80;20167;-73
2021/03/31 01:52:12;;;;;;;2.56;1.52;;;;;;;5.44;68.39;100208.00;2015193;80;20337;-73
2021/03/31 01:55:15;;;;;;;3.33;2.15;;;;;;;5.42;68.02;100214.81;2016278;80;20849;-73
2021/03/31 01:58:19;;;;;;;4.78;2.05;;;;;;;5.37;67.91;100212.91;2016158;80;20313;-73
2021/03/31 02:01:21;;;;;;;2.61;1.70;;;;;;;5.32;67.77;100211.91;2013834;77;21251;-73
2021/03/31 02:04:24;;;;;;;2.14;1.56;;;;;;;5.28;67.84;100208.38;2012280;80;20340;-73
2021/03/31 02:07:27;;;;;;;2.25;1.74;;;;;;;5.25;67.90;100213.44;2012084;80;20310;-73
2021/03/31 02:10:30;;;;;;;2.70;1.86;;;;;;;5.23;67.79;100204.78;2012329;80;20858;-73
2021/03/31 02:13:33;;;;;;;3.00;1.75;;;;;;;5.16;68.00;100201.13;2012300;80;20383;-73
2021/03/31 02:16:36;;;;;;;3.58;1.50;;;;;;;5.14;68.40;100201.91;2014313;77;20748;-73
2021/03/31 02:19:39;;;;;;;4.35;1.70;;;;;;;5.11;68.81;100194.97;2017657;80;20346;-73
2021/03/31 02:22:41;;;;;;;3.97;1.85;;;;;;;5.11;69.12;100204.41;2017736;80;20988;-73
2021/03/31 02:25:46;;;;;;;2.75;1.98;;;;;;;5.08;69.36;100194.91;2017403;80;20533;-73
2021/03/31 02:28:48;;;;;;;4.95;2.30;;;;;;;5.05;69.25;100192.25;2018149;80;20321;-73
2021/03/31 02:31:52;;;;;;;4.79;2.35;;;;;;;5.02;69.84;100194.69;2014136;77;21677;-73
2021/03/31 02:34:55;;;;;;;6.93;2.96;;;;;;;4.96;70.10;100197.09;2012561;80;20368;-73
2021/03/31 02:38:01;;;;;;;2.42;2.10;;;;;;;4.94;70.12;100191.03;2012463;80;20324;-73
2021/03/31 02:41:04;;;;;;;2.40;1.46;;;;;;;4.90;70.29;100191.75;2012982;80;20302;-73
2021/03/31 02:44:07;;;;;;;9.60;1.69;;;;;;;4.87;70.49;100191.66;2012306;80;20346;-73
2021/03/31 02:47:11;;;;;;;3.69;1.51;;;;;;;4.84;70.26;100187.28;2015666;77;21978;-72
2021/03/31 02:50:17;;;;;;;1.81;1.20;;;;;;;4.83;70.45;100180.38;2017430;80;21352;-72
2021/03/31 02:53:19;;;;;;;1.69;1.38;;;;;;;4.79;70.30;100175.97;2018064;80;20440;-73
2021/03/31 02:56:21;;;;;;;1.55;1.15;;;;;;;4.77;70.10;100171.63;2018016;80;20330;-73
2021/03/31 02:59:23;;;;;;;1.50;1.06;;;;;;;4.72;70.02;100171.47;2018331;80;20869;-73
2021/03/31 03:02:25;;;;;;;2.00;1.14;;;;;;;4.71;70.09;100168.84;2011878;78;22335;-72
2021/03/31 03:05:27;;;;;;;1.33;1.23;;;;;;;4.69;70.03;100163.66;2011398;80;20344;-73
2021/03/31 03:08:29;;;;;;;3.10;1.35;;;;;;;4.67;69.86;100172.13;2011858;80;20331;-73
2021/03/31 03:11:32;;;;;;;4.16;1.25;;;;;;;4.61;70.10;100161.66;2010257;80;20336;-73
2021/03/31 03:14:35;;;;;;;3.91;1.38;;;;;;;4.54;69.81;100163.19;2011056;80;20326;-73
2021/03/31 03:17:39;;;;;;;2.94;1.44;;;;;;;4.47;70.14;100167.22;2013824;77;20441;-72
2021/03/31 03:20:41;;;;;;;5.06;1.90;;;;;;;4.37;70.29;100160.06;2015927;80;20317;-73
2021/03/31 03:23:45;;;;;;;3.75;2.30;;;;;;;4.33;70.43;100163.38;2018902;80;20377;-72
2021/03/31 03:26:46;;;;;;;3.78;2.40;;;;;;;4.35;70.83;100163.41;2015727;80;20349;-72
2021/03/31 03:29:50;;;;;;;10.06;2.92;;;;;;;4.34;71.22;100170.25;2016718;80;20313;-73
2021/03/31 03:32:52;;;;;;;5.41;2.05;;;;;;;4.31;71.09;100162.44;2010961;77;20623;-73
2021/03/31 03:35:54;;;;;;;3.80;1.94;;;;;;;4.28;71.36;100161.44;2012019;80;20379;-73
2021/03/31 03:38:56;;;;;;;2.72;1.67;;;;;;;4.23;71.46;100158.72;2012106;80;20364;-72
2021/03/31 03:41:58;;;;;;;1.65;1.24;;;;;;;4.19;71.35;100155.19;2011359;80;20327;-73
2021/03/31 03:45:01;;;;;;;3.41;1.41;;;;;;;4.13;70.82;100157.56;2011618;80;20360;-72
2021/03/31 03:48:03;;;;;;;2.97;1.46;;;;;;;4.11;70.70;100150.59;2006453;77;27380;-72
2021/03/31 03:51:10;;;;;;;5.18;1.49;;;;;;;4.09;71.10;100155.69;2006963;80;20319;-73
2021/03/31 03:54:11;;;;;;;2.94;1.58;;;;;;;4.04;71.22;100146.97;2006859;80;20316;-72
2021/03/31 03:57:13;;;;;;;1.73;1.34;;;;;;;4.01;71.10;100152.00;2006522;80;20448;-72
2021/03/31 04:00:21;;;;;;;2.05;1.30;;;;;;;3.99;70.97;100158.78;2005994;77;54408;-72
2021/03/31 04:03:23;;;;;;;3.45;1.30;;;;;;;3.92;70.75;100152.53;2016382;80;20389;-72
2021/03/31 04:06:24;;;;;;;1.31;1.13;;;;;;;3.89;71.01;100149.88;2016930;80;20353;-72
2021/03/31 04:09:27;;;;;;;2.20;1.59;;;;;;;3.87;71.32;100148.94;2016946;80;20317;-72
2021/03/31 04:12:30;;;;;;;3.70;1.31;;;;;;;3.87;71.25;100142.94;2016901;80;20727;-73
2021/03/31 04:15:31;;;;;;;2.47;1.30;;;;;;;3.82;71.39;100152.19;2015460;77;22039;-72
2021/03/31 04:18:36;;;;;;;2.58;1.71;;;;;;;3.77;71.43;100151.13;2017443;80;20370;-72
2021/03/31 04:21:40;;;;;;;4.54;1.77;;;;;;;3.74;71.40;100143.34;2016878;80;20814;-72
2021/03/31 04:24:43;;;;;;;4.30;1.40;;;;;;;3.72;71.53;100150.13;2016388;80;20329;-72
2021/03/31 04:27:48;;;;;;;2.47;1.38;;;;;;;3.67;71.76;100144.81;2017412;80;20385;-72
2021/03/31 04:30:50;;;;;;;4.36;2.81;;;;;;;3.60;72.02;100145.44;2014922;78;27134;-72
2021/03/31 04:33:53;;;;;;;3.26;2.25;;;;;;;3.56;72.50;100149.56;2011990;80;20421;-72
2021/03/31 04:36:55;;;;;;;4.14;1.64;;;;;;;3.54;72.95;100156.34;2011838;80;20523;-72
2021/03/31 04:39:57;;;;;;;4.68;2.46;;;;;;;3.55;72.84;100147.81;2011685;80;20383;-73
2021/03/31 04:42:58;;;;;;;5.40;2.61;;;;;;;3.52;72.42;100150.28;2010905;80;20845;-73
2021/03/31 04:46:03;;;;;;;7.09;2.76;;;;;;;3.51;72.64;100156.25;2012074;77;21544;-72
2021/03/31 04:49:04;;;;;;;5.45;2.63;;;;;;;3.48;73.16;100153.56;2016626;80;20333;-72
2021/03/31 04:52:06;;;;;;;4.74;2.53;;;;;;;3.49;73.10;100147.63;2016457;80;20327;-72
2021/03/31 04:55:08;;;;;;;3.71;1.86;;;;;;;3.50;73.53;100156.19;2016613;80;20342;-72
2021/03/31 04:58:10;;;;;;;7.93;2.44;;;;;;;3.51;73.51;100161.38;2016665;80;21119;-72
2021/03/31 05:01:12;;;;;;;2.91;1.64;;;;;;;3.47;73.60;100159.53;2015747;77;20362;-72
2021/03/31 05:04:13;;;;;;;4.39;1.88;;;;;;;3.46;73.82;100154.34;2016223;80;20361;-72
2021/03/31 05:07:15;;;;;;;3.06;1.95;;;;;;;3.46;74.08;100157.78;2016962;80;20452;-72
2021/03/31 05:10:17;;;;;;;2.44;1.45;;;;;;;3.46;73.99;100162.03;2016399;80;20362;-72
2021/03/31 05:13:19;;;;;;;2.05;1.60;;;;;;;3.45;73.74;100155.16;2015965;80;20329;-72
2021/03/31 05:16:20;;;;;;;2.86;1.56;;;;;;;3.41;73.61;100156.75;2013929;78;21205;-72
2021/03/31 05:19:22;;;;;;;1.75;1.56;;;;;;;3.36;73.56;100155.69;2011349;80;20340;-72
2021/03/31 05:22:23;;;;;;;4.07;2.20;;;;;;;3.29;73.33;100157.16;2010435;80;20352;-73
2021/03/31 05:25:25;;;;;;;4.07;1.61;;;;;;;3.28;73.61;100146.84;2009277;80;20350;-72
2021/03/31 05:28:28;;;;;;;3.42;1.86;;;;;;;3.31;73.82;100152.94;2010592;80;20377;-72
2021/03/31 05:31:30;;;;;;;4.43;1.73;;;;;;;3.33;73.64;100153.00;2012483;77;20313;-72
2021/03/31 05:34:31;;;;;;;4.79;1.65;;;;;;;3.37;73.27;100147.16;2016208;80;20320;-72
2021/03/31 05:37:33;;;;;;;3.28;1.90;;;;;;;3.40;73.38;100151.53;2012130;80;20405;-72
2021/03/31 05:40:36;;;;;;;2.30;1.63;;;;;;;3.43;73.45;100157.66;2012266;80;20453;-72
2021/03/31 05:43:40;;;;;;;4.55;2.06;;;;;;;3.46;73.56;100150.06;2016441;80;20635;-72
2021/03/31 05:46:42;;;;;;;4.05;1.98;;;;;;;3.50;73.18;100151.94;2012068;77;21538;-72
2021/03/31 05:49:45;;;;;;;3.51;2.09;;;;;;;3.54;73.12;100153.78;2010589;80;20442;-75
2021/03/31 05:52:47;;;;;;;2.34;1.81;;;;;;;3.60;72.97;100153.16;2010387;80;20310;-73
2021/03/31 05:55:48;;;;;;;6.16;2.22;;;;;;;3.63;73.07;100151.56;2010916;80;20532;-72
2021/03/31 05:58:51;;;;;;;5.38;2.08;;;;;;;3.73;73.20;100154.44;2011434;80;21009;-73
2021/03/31 06:01:53;;;;;;;3.11;1.75;;;;;;;3.82;72.79;100149.63;2013540;77;22326;-73
2021/03/31 06:04:54;;;;;;;3.38;1.79;;;;;;;3.92;72.69;100147.41;2016050;80;20317;-73
2021/03/31 06:07:56;;;;;;;9.88;2.86;;;;;;;4.04;72.15;100152.09;2015825;80;20343;-73
2021/03/31 06:10:59;;;;;;;3.47;1.91;;;;;;;4.16;72.05;100149.09;2015661;80;20342;-74
2021/03/31 06:14:02;;;;;;;3.99;2.08;;;;;;;4.30;72.11;100158.09;2016209;80;20355;-74
2021/03/31 06:17:09;;;;;;;2.78;1.85;;;;;;;4.46;71.86;100159.47;2012128;78;20890;-74
2021/03/31 06:20:11;;;;;;;2.21;1.55;;;;;;;4.65;71.37;100158.34;2010845;80;20359;-74
2021/03/31 06:26:45;;;;;;;3.59;1.67;;;;;;;5.23;70.46;100170.44;2010792;80;20323;-74
2021/03/31 06:30:03;;;;;;;2.21;1.96;;;;;;;5.92;69.07;100165.53;2011388;80;20352;-74
2021/03/31 06:33:05;;;;;;;4.16;2.20;;;;;;;6.48;66.60;100164.44;2010642;77;20338;-75
2021/03/31 06:36:09;;;;;;;5.57;2.71;;;;;;;7.19;63.93;100160.03;2011825;80;20152;-75
2021/03/31 06:39:21;;;;;;;7.53;2.76;;;;;;;7.83;61.87;100152.69;2012167;80;20376;-76
2021/03/31 06:42:45;;;;;;;5.46;2.53;;;;;;;8.42;59.68;100152.91;2015380;80;20196;-76
2021/03/31 06:45:58;;;;;;;5.60;2.64;;;;;;;8.96;57.57;100144.22;2009039;77;46237;-74
2021/03/31 06:49:00;;;;;;;5.84;2.72;;;;;;;9.31;56.37;100150.75;2017496;80;20175;-77
2021/03/31 06:52:06;;;;;;;5.19;3.08;;;;;;;9.50;55.69;100151.84;2016838;80;20188;-75
2021/03/31 06:55:08;;;;;;;7.00;2.71;;;;;;;9.77;55.10;100147.84;2016361;80;20176;-75
2021/03/31 06:58:11;;;;;;;6.65;2.88;;;;;;;9.96;54.35;100150.66;2016749;80;20168;-74
2021/03/31 07:01:33;;;;;;;5.04;2.29;;;;;;;10.10;53.74;100145.63;2013336;77;20332;-75
2021/03/31 07:04:35;;;;;;;4.26;2.70;;;;;;;10.31;53.51;100144.09;2012292;80;20160;-76
2021/03/31 07:08:12;;;;;;;5.82;3.40;;;;;;;10.46;52.82;100137.31;2011968;80;20220;-72
2021/03/31 07:11:40;;;;;;;5.86;3.05;;;;;;;10.62;52.10;100135.72;2011711;80;20311;-77
2021/03/31 07:14:46;;;;;;;10.31;3.84;;;;;;;10.88;52.69;100128.06;2012222;80;20180;-73
2021/03/31 07:17:53;;;;;;;7.69;3.25;;;;;;;11.22;52.93;100129.13;2015693;77;20209;-76
2021/03/31 07:20:55;;;;;;;5.78;3.01;;;;;;;11.40;51.90;100128.34;2017114;80;20197;-77
2021/03/31 07:23:58;;;;;;;8.70;3.61;;;;;;;11.56;51.61;100124.94;2016456;80;21038;-77
2021/03/31 07:27:00;;;;;;;6.21;3.59;;;;;;;11.93;50.76;100122.47;2016548;80;20217;-77
2021/03/31 07:33:19;;;;;;;8.95;3.79;;;;;;;12.56;48.90;100120.75;2013451;76;40004;-78
2021/03/31 07:36:21;;;;;;;11.36;3.96;;;;;;;12.91;48.15;100113.75;2012812;80;21044;-73
2021/03/31 07:39:29;;;;;;;11.70;4.29;;;;;;;13.26;47.62;100116.28;2012654;80;20608;-76
2021/03/31 07:42:31;;;;;;;8.68;3.95;;;;;;;13.47;47.11;100111.88;2014378;80;20192;-74
2021/03/31 07:45:41;;;;;;;7.59;4.56;;;;;;;13.85;46.66;100109.94;2014797;77;20742;-74
2021/03/31 07:48:45;;;;;;;12.39;4.38;;;;;;;14.25;46.09;100103.56;2017479;80;20342;-74
2021/03/31 07:51:58;;;;;;;9.29;4.47;;;;;;;14.56;45.66;100105.06;2016884;80;20403;-73
2021/03/31 07:55:29;;;;;;;17.80;4.35;;;;;;;14.75;44.12;100106.63;2017165;80;20175;-73
2021/03/31 07:58:32;;;;;;;10.99;4.74;;;;;;;15.12;43.62;100101.00;2017007;80;20600;-73
2021/03/31 08:01:48;;;;;;;11.43;4.72;;;;;;;15.42;43.20;100105.84;2013403;80;22090;-73
2021/03/31 08:04:50;;;;;;;7.95;4.69;;;;;;;15.79;42.52;100096.66;2011933;80;20639;-72
2021/03/31 08:08:15;;;;;;;13.06;4.78;;;;;;;16.10;41.78;100094.47;2012585;80;20380;-74
2021/03/31 08:11:38;;;;;;;11.00;4.69;;;;;;;16.41;40.70;100094.84;2011706;80;20184;-74
2021/03/31 08:14:44;;;;;;;10.85;5.26;;;;;;;16.75;39.22;100089.91;2011584;80;20295;-75
2021/03/31 08:18:05;;;;;;;13.48;5.38;;;;;;;17.06;38.67;100098.06;2006378;78;21551;-70
2021/03/31 08:21:19;;;;;;;10.21;5.38;;;;;;;17.19;37.28;100095.16;2006675;80;20292;-76
2021/03/31 08:24:44;;;;;;;14.98;5.60;;;;;;;17.54;37.01;100101.44;2006951;80;20350;-77
2021/03/31 08:28:01;;;;;;;8.51;5.21;;;;;;;17.97;37.87;100097.91;2006811;80;20210;-72
2021/03/31 08:31:21;;;;;;;10.82;4.84;;;;;;;18.34;36.85;100092.63;2009344;77;21231;-71
2021/03/31 08:34:24;;;;;;;13.75;5.26;;;;;;;18.65;35.96;100098.84;2016943;80;20183;-72
2021/03/31 08:37:30;;;;;;;14.48;4.86;;;;;;;18.78;35.11;100098.53;2016692;80;20536;-72
2021/03/31 08:40:32;;;;;;;12.60;4.72;;;;;;;18.95;34.19;100099.81;2017328;80;20201;-73
2021/03/31 08:43:37;;;;;;;11.07;4.21;;;;;;;19.10;33.58;100090.63;2016597;80;20224;-72
2021/03/31 08:46:40;;;;;;;7.89;4.78;;;;;;;19.38;34.53;100089.81;2013320;77;20176;-72
2021/03/31 08:49:44;;;;;;;9.38;4.13;;;;;;;19.70;33.39;100091.53;2012101;80;20194;-72
2021/03/31 08:52:47;;;;;;;15.07;4.30;;;;;;;19.82;32.73;100093.81;2011433;80;20188;-72
2021/03/31 08:55:49;;;;;;;11.46;3.75;;;;;;;20.14;33.67;100090.16;2012364;80;20771;-73
2021/03/31 08:58:52;;;;;;;11.11;4.22;;;;;;;20.49;33.16;100086.38;2011344;80;20172;-73
2021/03/31 09:01:54;;;;;;;9.16;3.61;;;;;;;20.76;32.16;100085.44;2014675;77;20203;-74
2021/03/31 09:04:57;;;;;;;12.24;4.14;;;;;;;21.05;33.10;100088.81;2016710;80;20200;-73
2021/03/31 09:08:01;;;;;;;10.46;3.53;;;;;;;21.18;30.79;100084.78;2017213;80;20681;-72
2021/03/31 09:11:29;;;;;;;6.22;3.03;;;;;;;21.23;30.48;100072.31;2021210;80;20184;-75
2021/03/31 09:14:32;;;;;;;6.61;3.22;;;;;;;21.50;31.95;100072.19;2016208;80;20334;-72
2021/03/31 09:17:34;;;;;;;8.23;3.41;;;;;;;21.73;32.11;100066.03;2012483;77;22944;-73
2021/03/31 09:20:42;;;;;;;7.64;2.78;;;;;;;21.83;31.28;100068.25;2011850;80;20165;-72
2021/03/31 09:23:45;;;;;;;10.77;3.45;;;;;;;21.99;28.69;100057.91;2011509;80;20226;-72
2021/03/31 09:26:58;;;;;;;6.57;2.81;;;;;;;21.95;29.14;100057.19;2012093;80;20237;-74
2021/03/31 09:30:04;;;;;;;5.00;1.88;;;;;;;22.22;30.37;100054.34;2011935;80;20578;-72
2021/03/31 09:33:13;;;;;;;5.59;2.55;;;;;;;22.50;30.85;100044.34;2010946;77;20421;-73
2021/03/31 09:36:18;;;;;;;6.84;2.39;;;;;;;22.95;30.25;100042.41;2011316;80;20634;-72
2021/03/31 09:39:58;;;;;;;6.45;2.04;;;;;;;23.18;29.13;100035.16;2012008;80;20307;-72
2021/03/31 09:43:04;;;;;;;5.80;1.63;;;;;;;23.48;28.19;100038.16;2011457;80;20318;-72
2021/03/31 09:46:07;;;;;;;5.93;1.75;;;;;;;23.72;27.96;100036.19;2012749;77;20652;-72
2021/03/31 09:49:10;;;;;;;4.44;1.40;;;;;;;23.77;26.89;100034.16;2016495;80;20310;-73
2021/03/31 09:52:12;;;;;;;3.84;1.60;;;;;;;23.99;28.02;100031.31;2016346;80;20180;-73
2021/03/31 09:55:14;;;;;;;5.85;1.69;;;;;;;24.20;26.64;100031.19;2016253;80;20684;-72
2021/03/31 09:58:25;;;;;;;5.24;1.71;;;;;;;24.27;26.82;100028.16;2017035;80;20833;-72
2021/03/31 10:01:27;;;;;;;4.14;2.04;;;;;;;24.37;27.51;100021.47;2014107;77;20906;-74
2021/03/31 10:04:32;;;;;;;6.01;1.80;;;;;;;24.58;28.30;100021.28;2011909;80;20188;-74
2021/03/31 10:07:34;;;;;;;4.43;1.67;;;;;;;24.70;27.29;100016.22;2011641;80;20252;-74
2021/03/31 10:10:44;;;;;;;5.36;1.73;;;;;;;24.82;25.73;100020.03;2011973;80;20573;-72
2021/03/31 10:13:45;;;;;;;;;;;;;;;24.78;25.95;100013.16;2011819;80;20267;-73
2021/03/31 10:16:48;;;;;;;4.46;1.54;;;;;;;24.91;26.39;100002.72;2014221;77;20437;-75
2021/03/31 10:19:51;;;;;;;3.46;1.40;;;;;;;25.02;26.32;100000.38;2017489;80;20196;-73
2021/03/31 10:22:53;;;;;;;4.51;1.38;;;;;;;24.93;26.67;100001.69;2016935;80;20188;-72
2021/03/31 10:26:31;;;;;;;3.81;1.34;;;;;;;24.91;25.99;99990.28;2015348;80;20219;-74
2021/03/31 10:29:51;;;;;;;3.63;1.48;;;;;;;25.04;27.25;99989.66;2016084;80;20163;-75
2021/03/31 10:33:13;;;;;;;2.96;1.30;;;;;;;25.45;26.88;99988.22;2006378;78;21161;-74
2021/03/31 10:37:04;;;;;;;5.09;1.38;;;;;;;25.54;26.20;99985.06;2006617;80;20277;-74
2021/03/31 10:47:03;;;;;;;4.00;1.24;;;;;;;26.19;25.31;99969.75;2008962;77;28785;-73
2021/03/31 10:50:07;;;;;;;4.03;1.25;;;;;;;26.35;25.96;99966.22;2011898;80;20201;-73
2021/03/31 10:53:10;;;;;;;2.96;1.01;;;;;;;26.57;25.44;99963.09;2010597;80;20208;-78
2021/03/31 10:56:12;;;;;;;5.10;1.74;;;;;;;26.55;24.73;99963.19;2012999;80;20237;-74
2021/03/31 10:59:14;;;;;;;5.39;1.30;;;;;;;26.72;26.34;99955.03;2010487;80;21063;-76
2021/03/31 11:02:17;;;;;;;3.67;1.25;;;;;;;26.78;24.50;99957.31;2013331;77;23709;-74
2021/03/31 11:05:19;;;;;;;4.45;1.09;;;;;;;26.82;24.71;99947.31;2015040;80;20168;-74
2021/03/31 11:08:22;;;;;;;4.60;1.09;;;;;;;26.63;23.30;99936.97;2015208;80;20172;-75
2021/03/31 11:11:24;;;;;;;5.56;1.14;;;;;;;26.49;23.45;99932.47;2014998;80;20195;-72
2021/03/31 11:14:28;;;;;;;6.25;1.66;;;;;;;26.69;23.67;99927.72;2015470;80;20184;-77
2021/03/31 11:27:25;;;;;;;5.03;1.63;;;;;;;27.61;23.40;99920.03;2009074;80;20739;-74
2021/03/31 11:30:27;;;;;;;2.94;0.98;;;;;;;27.60;22.95;99915.66;2009186;77;21090;-73
2021/03/31 11:33:29;;;;;;;4.19;1.20;;;;;;;27.71;21.73;99920.31;2009410;80;20190;-75
2021/03/31 11:36:32;;;;;;;4.38;1.10;;;;;;;27.59;21.27;99916.59;2009726;80;20176;-74
2021/03/31 11:39:33;;;;;;;3.96;1.05;;;;;;;27.57;21.14;99907.84;2009455;80;20539;-74
2021/03/31 11:42:35;;;;;;;2.86;1.05;;;;;;;27.52;22.84;99908.16;2009613;80;20402;-74
2021/03/31 11:45:37;;;;;;;3.63;1.45;;;;;;;27.49;22.54;99903.03;2009864;77;25513;-74
2021/03/31 11:48:40;;;;;;;2.89;1.20;;;;;;;27.61;20.43;99904.00;2015259;80;20941;-75
2021/03/31 11:51:42;;;;;;;7.60;1.08;;;;;;;27.54;21.30;99894.72;2014500;80;20195;-74
2021/03/31 11:54:44;;;;;;;3.66;1.20;;;;;;;27.69;21.54;99899.06;2014115;80;20949;-75
2021/03/31 11:57:46;;;;;;;6.75;1.46;;;;;;;27.72;22.44;99888.19;2014565;80;20189;-74
2021/03/31 12:00:48;;;;;;;8.89;1.21;;;;;;;27.72;21.25;99879.31;2012111;77;21090;-74
2021/03/31 12:03:50;;;;;;;11.18;1.76;;;;;;;27.77;23.57;99882.53;2009404;80;20200;-74
2021/03/31 12:06:52;;;;;;;5.11;1.10;;;;;;;28.01;22.37;99880.88;2006590;80;20197;-73
2021/03/31 12:09:54;;;;;;;4.74;1.31;;;;;;;28.06;22.49;99873.41;2008155;80;20203;-74
2021/03/31 12:12:55;;;;;;;4.72;1.11;;;;;;;28.18;22.26;99871.69;2009020;80;20177;-73
2021/03/31 12:15:57;;;;;;;5.50;1.21;;;;;;;28.19;21.65;99865.41;2008471;77;22009;-73
2021/03/31 12:18:59;;;;;;;4.69;1.17;;;;;;;28.32;22.41;99860.91;2013816;80;20191;-73
2021/03/31 12:22:00;;;;;;;4.31;1.44;;;;;;;28.46;22.23;99858.13;2012884;80;20209;-73
2021/03/31 12:25:05;;;;;;;5.84;1.05;;;;;;;28.55;22.65;99853.97;2013786;80;20168;-74
2021/03/31 12:28:09;;;;;;;5.41;1.05;;;;;;;28.58;21.97;99851.94;2014787;80;20191;-74
2021/03/31 12:31:11;;;;;;;4.59;1.20;;;;;;;28.66;21.10;99845.16;2013080;77;22324;-74
2021/03/31 12:34:13;;;;;;;6.90;1.05;;;;;;;28.59;21.23;99837.59;2013179;80;20636;-74
2021/03/31 12:37:14;;;;;;;5.76;1.70;;;;;;;28.65;20.37;99838.97;2013147;80;20199;-75
2021/03/31 12:40:16;;;;;;;4.99;1.00;;;;;;;28.53;17.43;99834.50;2013318;80;20616;-80
2021/03/31 12:43:20;;;;;;;5.82;1.09;;;;;;;28.50;17.74;99834.72;2015308;80;20179;-81
2021/03/31 12:46:21;;;;;;;4.81;1.19;;;;;;;28.33;17.34;99830.56;2010881;77;22796;-74
2021/03/31 12:49:23;;;;;;;5.94;1.10;;;;;;;28.43;18.04;99825.44;2008772;80;20191;-74
2021/03/31 12:52:31;;;;;;;3.17;0.90;;;;;;;28.37;17.39;99821.41;2009126;80;20213;-75
2021/03/31 12:55:39;;;;;;;4.07;1.17;;;;;;;28.54;18.01;99820.16;2008326;80;20577;-74
2021/03/31 12:58:42;;;;;;;5.44;1.44;;;;;;;28.65;16.46;99808.72;2009944;80;20532;-75
2021/03/31 13:01:45;;;;;;;7.22;1.08;;;;;;;28.68;17.01;99809.34;2011610;77;22136;-76
2021/03/31 13:05:07;;;;;;;5.01;1.00;;;;;;;28.61;16.21;99807.25;2015332;80;20262;-75
2021/03/31 13:08:29;;;;;;;6.61;1.10;;;;;;;28.49;15.91;99799.13;2016505;80;20700;-74
2021/03/31 13:11:52;;;;;;;9.00;1.34;;;;;;;28.47;16.66;99794.88;2016510;80;20191;-78
2021/03/31 13:25:08;;;;;;;4.71;1.26;;;;;;;28.75;17.38;99788.38;2010897;80;20319;-74
2021/03/31 13:31:51;;;;;;;6.85;0.90;;;;;;;28.78;18.88;99778.31;2012536;77;20187;-73
2021/03/31 13:34:59;;;;;;;9.15;1.83;;;;;;;28.75;18.11;99762.50;2015253;80;20196;-73
2021/03/31 13:38:17;;;;;;;4.72;1.10;;;;;;;28.83;17.68;99770.81;2016159;80;20193;-73
2021/03/31 13:41:19;;;;;;;7.56;1.00;;;;;;;28.89;18.82;99759.69;2019233;80;20160;-73
2021/03/31 13:44:20;;;;;;;6.06;1.10;;;;;;;28.95;18.26;99753.03;2016572;80;20172;-73
2021/03/31 13:47:25;;;;;;;3.28;0.80;;;;;;;28.81;18.34;99753.19;2012432;77;20825;-76
2021/03/31 13:50:29;;;;;;;7.28;1.50;;;;;;;28.76;18.99;99755.34;2010992;80;20952;-74
2021/03/31 13:53:51;;;;;;;7.20;1.09;;;;;;;28.78;18.59;99737.38;2010221;80;20975;-73
2021/03/31 13:56:53;;;;;;;7.13;1.09;;;;;;;28.82;19.33;99742.38;2010633;80;20194;-73
2021/03/31 13:59:55;;;;;;;3.49;0.99;;;;;;;28.77;19.12;99736.50;2010951;80;20318;-73
2021/03/31 14:02:57;;;;;;;4.86;1.01;;;;;;;28.72;18.86;99737.81;2014529;77;21468;-74
2021/03/31 14:06:19;;;;;;;5.41;1.16;;;;;;;28.81;19.45;99731.78;2015970;80;20188;-74
2021/03/31 14:09:41;;;;;;;4.35;1.10;;;;;;;28.89;20.27;99726.75;2015742;80;20176;-75
2021/03/31 14:13:05;;;;;;;3.49;1.09;;;;;;;28.82;19.15;99720.13;2014009;80;20239;-74
2021/03/31 14:16:32;;;;;;;4.63;1.10;;;;;;;28.95;20.13;99718.28;2011168;77;20226;-75
2021/03/31 14:19:53;;;;;;;6.61;1.06;;;;;;;28.78;19.58;99715.97;2009186;80;20249;-74
2021/03/31 14:22:54;;;;;;;6.65;1.63;;;;;;;28.81;19.58;99710.41;2008680;80;21091;-74
2021/03/31 14:25:56;;;;;;;4.16;0.95;;;;;;;28.79;19.72;99707.00;2008652;80;20585;-74
2021/03/31 14:28:58;;;;;;;6.20;1.10;;;;;;;28.80;20.11;99712.22;2007467;80;20197;-73
2021/03/31 14:32:04;;;;;;;5.56;0.99;;;;;;;28.87;20.02;99699.28;2011195;77;20334;-73
2021/03/31 14:35:26;;;;;;;4.78;1.00;;;;;;;28.79;19.30;99693.63;2013052;80;20191;-73
2021/03/31 14:38:48;;;;;;;6.54;1.30;;;;;;;28.94;18.90;99689.84;2014216;80;20323;-73
2021/03/31 14:41:52;;;;;;;4.97;1.20;;;;;;;28.91;18.00;99686.56;2013435;80;20515;-73
2021/03/31 14:44:53;;;;;;;7.47;1.06;;;;;;;28.85;17.85;99687.81;2012967;80;20183;-73
2021/03/31 14:47:58;;;;;;;6.68;1.10;;;;;;;28.93;18.50;99689.97;2008583;78;20996;-74
2021/03/31 14:51:25;;;;;;;8.44;0.99;;;;;;;28.87;17.62;99685.91;2008464;80;20740;-74
2021/03/31 15:01:02;;;;;;;5.30;0.80;;;;;;;28.85;16.31;99672.63;2009342;77;57746;-72
2021/03/31 15:04:05;;;;;;;3.84;0.95;;;;;;;28.83;16.04;99673.72;2014581;80;20370;-75
2021/03/31 15:07:06;;;;;;;4.55;0.82;;;;;;;28.81;16.13;99671.16;2014636;80;20276;-76
2021/03/31 15:10:09;;;;;;;3.60;0.80;;;;;;;28.92;16.50;99674.88;2014330;80;20200;-76
2021/03/31 15:13:31;;;;;;;4.25;0.95;;;;;;;28.77;16.26;99667.00;2013628;80;21221;-76
2021/03/31 15:16:34;;;;;;;4.66;0.90;;;;;;;28.85;16.22;99661.94;2012529;78;20258;-76
2021/03/31 15:22:47;;;;;;;2.55;0.80;;;;;;;28.89;14.95;99646.53;2009311;80;20573;-76